Gwen — V7LP6 — position and weather

sailwx.info

Track history (hours):
 
Tides and Currents Weather Stations Pressure Air Temp Water Temp Dewpoint Dewpoint Depression Visibility Wind Speed Wind Dir Waves Ship Positions

Gwen

Last reported at 2018-Jan-22 01:48 UTC. Time now 2018-Jan-22 13:41 UTC.
Position N 09°09' W 079°49'.

Length 144 m; draft 10 m.

Type: Tanker. MMSI: 538007204.

Date/timePositionNaut miles runAvg speedWind from/ knotsBaromVisibWave heightAir tempDewpointWater temp
2018-Jan-22 01:48N 09°09' W 079°49'410.2
2018-Jan-22 01:26N 09°11' W 079°52'410.0
2018-Jan-22 01:00N 09°13' W 079°55'3 6.7
2018-Jan-22 00:30N 09°16' W 079°55'0 0.6
2018-Jan-21 23:59N 09°16' W 079°55'0 0.3
2018-Jan-21 23:28N 09°17' W 079°55'1 1.4
2018-Jan-21 23:00N 09°17' W 079°55'4 8.1
2018-Jan-21 22:30N 09°21' W 079°55'1 2.9
2018-Jan-21 22:00N 09°22' W 079°56'0 0.0
2018-Jan-21 21:30N 09°22' W 079°56'0 0.0
2018-Jan-21 21:00N 09°22' W 079°56'0 0.0
2018-Jan-21 20:30N 09°22' W 079°56'0 0.0
2018-Jan-21 20:00N 09°22' W 079°56'0 0.0
2018-Jan-21 19:30N 09°22' W 079°56'0 0.0
2018-Jan-21 19:00N 09°22' W 079°56'0 0.0
2018-Jan-21 18:30N 09°22' W 079°56'0 0.0
2018-Jan-21 18:00N 09°23' W 079°56'0 0.0
2018-Jan-21 17:30N 09°22' W 079°56'0 0.0
2018-Jan-21 17:00N 09°22' W 079°56'0 0.0
2018-Jan-21 16:30N 09°22' W 079°56'0 0.0
2018-Jan-21 16:00N 09°22' W 079°56'0 0.0
2018-Jan-21 15:30N 09°23' W 079°56'0 0.0
2018-Jan-21 15:00N 09°23' W 079°56'0 0.0
2018-Jan-21 14:30N 09°23' W 079°56'0 0.0
2018-Jan-21 14:00N 09°22' W 079°56'0 0.0
2018-Jan-21 13:30N 09°22' W 079°56'0 0.0
2018-Jan-21 13:00N 09°22' W 079°56'0 0.0
2018-Jan-21 12:30N 09°22' W 079°56'0 0.0
2018-Jan-21 12:00N 09°23' W 079°56'0 0.0
2018-Jan-21 11:30N 09°22' W 079°56'0 0.0
2018-Jan-21 11:00N 09°22' W 079°56'0 0.0
2018-Jan-21 10:30N 09°22' W 079°56'0 0.0
2018-Jan-21 10:00N 09°23' W 079°56'0 0.0
2018-Jan-21 09:30N 09°23' W 079°56'0 0.0
2018-Jan-21 09:00N 09°22' W 079°56'0 0.0
2018-Jan-21 08:30N 09°22' W 079°56'0 0.0
2018-Jan-21 08:00N 09°23' W 079°56'0 0.0
2018-Jan-21 07:30N 09°22' W 079°56'0 0.0
2018-Jan-21 07:00N 09°23' W 079°56'0 0.0
2018-Jan-21 06:30N 09°23' W 079°56'0 0.0
2018-Jan-21 06:00N 09°22' W 079°56'0 0.0
2018-Jan-21 05:30N 09°23' W 079°56'0 0.0
2018-Jan-21 05:00N 09°22' W 079°56'0 0.0
2018-Jan-21 04:30N 09°22' W 079°56'0 0.0
2018-Jan-21 04:00N 09°22' W 079°56'0 0.0
2018-Jan-21 03:30N 09°22' W 079°56'0 0.0
2018-Jan-21 03:00N 09°23' W 079°56'0 0.0
2018-Jan-21 02:30N 09°22' W 079°56'0 0.0
2018-Jan-21 02:00N 09°22' W 079°56'0 0.0
2018-Jan-21 01:30N 09°22' W 079°56'0 0.1
2018-Jan-21 01:00N 09°22' W 079°56'0 0.1
2018-Jan-21 00:30N 09°22' W 079°56'0 0.2
2018-Jan-21 00:00N 09°23' W 079°56'1 2.6
2018-Jan-20 23:30N 09°24' W 079°55'2 3.7
2018-Jan-20 23:00N 09°25' W 079°56'1 2.7
2018-Jan-20 22:30N 09°25' W 079°58'0 0.1
2018-Jan-20 22:00N 09°25' W 079°58'0 0.0
2018-Jan-20 21:30N 09°25' W 079°58'0 0.0
2018-Jan-20 21:00N 09°25' W 079°58'0 0.0
2018-Jan-20 20:30N 09°25' W 079°58'0 0.0
2018-Jan-20 20:00N 09°25' W 079°58'0 0.0
2018-Jan-20 19:30N 09°25' W 079°58'0 0.0
2018-Jan-20 19:00N 09°25' W 079°58'0 0.0
2018-Jan-20 18:30N 09°25' W 079°58'0 0.0
2018-Jan-20 18:00N 09°25' W 079°58'0 0.0
2018-Jan-20 17:30N 09°25' W 079°58'0 0.0
2018-Jan-20 16:59N 09°25' W 079°58'0 0.0
2018-Jan-20 16:30N 09°25' W 079°58'0 0.0
2018-Jan-20 15:59N 09°25' W 079°58'0 0.1
2018-Jan-20 15:30N 09°25' W 079°58'0 0.2
2018-Jan-20 15:00N 09°25' W 079°58'1 2.1
2018-Jan-20 14:30N 09°26' W 079°57'3 5.8
2018-Jan-20 14:00N 09°27' W 079°54'3 5.9
2018-Jan-20 13:28N 09°30' W 079°53'  
Track history (hours):
 
Tides and Currents Weather Stations Pressure Air Temp Water Temp Dewpoint Dewpoint Depression Visibility Wind Speed Wind Dir Waves Ship Positions

Gwen

Last reported at 2018-Jan-22 01:48 UTC. Time now 2018-Jan-22 13:41 UTC.
Position N 09°09' W 079°49'.

Length 144 m; draft 10 m.

Type: Tanker. MMSI: 538007204.

Date/timePositionNaut miles runAvg speedWind from/ knotsBaromVisibWave heightAir tempDewpointWater temp
2018-Jan-22 01:48N 09°09' W 079°49'410.2
2018-Jan-22 01:26N 09°11' W 079°52'410.0
2018-Jan-22 01:00N 09°13' W 079°55'3 6.7
2018-Jan-22 00:30N 09°16' W 079°55'0 0.6
2018-Jan-21 23:59N 09°16' W 079°55'0 0.3
2018-Jan-21 23:28N 09°17' W 079°55'1 1.4
2018-Jan-21 23:00N 09°17' W 079°55'4 8.1
2018-Jan-21 22:30N 09°21' W 079°55'1 2.9
2018-Jan-21 22:00N 09°22' W 079°56'0 0.0
2018-Jan-21 21:30N 09°22' W 079°56'0 0.0
2018-Jan-21 21:00N 09°22' W 079°56'0 0.0
2018-Jan-21 20:30N 09°22' W 079°56'0 0.0
2018-Jan-21 20:00N 09°22' W 079°56'0 0.0
2018-Jan-21 19:30N 09°22' W 079°56'0 0.0
2018-Jan-21 19:00N 09°22' W 079°56'0 0.0
2018-Jan-21 18:30N 09°22' W 079°56'0 0.0
2018-Jan-21 18:00N 09°23' W 079°56'0 0.0
2018-Jan-21 17:30N 09°22' W 079°56'0 0.0
2018-Jan-21 17:00N 09°22' W 079°56'0 0.0
2018-Jan-21 16:30N 09°22' W 079°56'0 0.0
2018-Jan-21 16:00N 09°22' W 079°56'0 0.0
2018-Jan-21 15:30N 09°23' W 079°56'0 0.0
2018-Jan-21 15:00N 09°23' W 079°56'0 0.0
2018-Jan-21 14:30N 09°23' W 079°56'0 0.0
2018-Jan-21 14:00N 09°22' W 079°56'0 0.0
2018-Jan-21 13:30N 09°22' W 079°56'0 0.0
2018-Jan-21 13:00N 09°22' W 079°56'0 0.0
2018-Jan-21 12:30N 09°22' W 079°56'0 0.0
2018-Jan-21 12:00N 09°23' W 079°56'0 0.0
2018-Jan-21 11:30N 09°22' W 079°56'0 0.0
2018-Jan-21 11:00N 09°22' W 079°56'0 0.0
2018-Jan-21 10:30N 09°22' W 079°56'0 0.0
2018-Jan-21 10:00N 09°23' W 079°56'0 0.0
2018-Jan-21 09:30N 09°23' W 079°56'0 0.0
2018-Jan-21 09:00N 09°22' W 079°56'0 0.0
2018-Jan-21 08:30N 09°22' W 079°56'0 0.0
2018-Jan-21 08:00N 09°23' W 079°56'0 0.0
2018-Jan-21 07:30N 09°22' W 079°56'0 0.0
2018-Jan-21 07:00N 09°23' W 079°56'0 0.0
2018-Jan-21 06:30N 09°23' W 079°56'0 0.0
2018-Jan-21 06:00N 09°22' W 079°56'0 0.0
2018-Jan-21 05:30N 09°23' W 079°56'0 0.0
2018-Jan-21 05:00N 09°22' W 079°56'0 0.0
2018-Jan-21 04:30N 09°22' W 079°56'0 0.0
2018-Jan-21 04:00N 09°22' W 079°56'0 0.0
2018-Jan-21 03:30N 09°22' W 079°56'0 0.0
2018-Jan-21 03:00N 09°23' W 079°56'0 0.0
2018-Jan-21 02:30N 09°22' W 079°56'0 0.0
2018-Jan-21 02:00N 09°22' W 079°56'0 0.0
2018-Jan-21 01:30N 09°22' W 079°56'0 0.1
2018-Jan-21 01:00N 09°22' W 079°56'0 0.1
2018-Jan-21 00:30N 09°22' W 079°56'0 0.2
2018-Jan-21 00:00N 09°23' W 079°56'1 2.6
2018-Jan-20 23:30N 09°24' W 079°55'2 3.7
2018-Jan-20 23:00N 09°25' W 079°56'1 2.7
2018-Jan-20 22:30N 09°25' W 079°58'0 0.1
2018-Jan-20 22:00N 09°25' W 079°58'0 0.0
2018-Jan-20 21:30N 09°25' W 079°58'0 0.0
2018-Jan-20 21:00N 09°25' W 079°58'0 0.0
2018-Jan-20 20:30N 09°25' W 079°58'0 0.0
2018-Jan-20 20:00N 09°25' W 079°58'0 0.0
2018-Jan-20 19:30N 09°25' W 079°58'0 0.0
2018-Jan-20 19:00N 09°25' W 079°58'0 0.0
2018-Jan-20 18:30N 09°25' W 079°58'0 0.0
2018-Jan-20 18:00N 09°25' W 079°58'0 0.0
2018-Jan-20 17:30N 09°25' W 079°58'0 0.0
2018-Jan-20 16:59N 09°25' W 079°58'0 0.0
2018-Jan-20 16:30N 09°25' W 079°58'0 0.0
2018-Jan-20 15:59N 09°25' W 079°58'0 0.1
2018-Jan-20 15:30N 09°25' W 079°58'0 0.2
2018-Jan-20 15:00N 09°25' W 079°58'1 2.1
2018-Jan-20 14:30N 09°26' W 079°57'3 5.8
2018-Jan-20 14:00N 09°27' W 079°54'3 5.9
2018-Jan-20 13:28N 09°30' W 079°53'  

Dump ship's entire track history